Time;durP1;ratioP1;P1;durP2;ratioP2;P2;SDS_P1;SDS_P2;PMS_P1;PMS_P2;Temp;Humidity;BMP_temperature;BMP_pressure;BME280_temperature;BME280_humidity;BME280_pressure;Samples;Min_cycle;Max_cycle;Signal;HPM_P1;HPM_P2
2023/07/29 00:02:23;;;;;;;3.60;1.95;;;;;;;22.96;59.01;100661.72;4982113;28;20125;-72
2023/07/29 00:04:48;;;;;;;3.55;1.88;;;;;;;22.97;59.02;100662.53;4981332;28;20571;-72
2023/07/29 00:07:14;;;;;;;3.15;1.75;;;;;;;22.97;58.79;100660.75;4981456;28;20034;-71
2023/07/29 00:09:39;;;;;;;4.75;2.00;;;;;;;22.96;59.12;100667.03;4981094;28;20069;-72
2023/07/29 00:12:04;;;;;;;4.80;1.85;;;;;;;22.95;59.35;100669.84;4981307;28;20058;-72
2023/07/29 00:14:30;;;;;;;3.88;1.80;;;;;;;22.95;59.11;100664.53;4981928;28;20467;-72
2023/07/29 00:16:55;;;;;;;4.43;1.70;;;;;;;22.94;58.83;100666.38;4981919;28;20038;-72
2023/07/29 00:19:23;;;;;;;5.43;1.90;;;;;;;22.94;58.64;100669.03;4981646;28;20038;-72
2023/07/29 00:21:49;;;;;;;3.60;1.80;;;;;;;22.94;59.03;100666.38;4981330;28;20066;-71
2023/07/29 00:24:14;;;;;;;4.15;1.90;;;;;;;22.93;58.85;100664.69;4982128;28;20077;-70
2023/07/29 00:26:39;;;;;;;3.95;1.80;;;;;;;22.94;59.06;100663.72;4980668;28;20113;-71
2023/07/29 00:29:05;;;;;;;6.23;1.97;;;;;;;22.94;58.77;100668.19;4982012;28;20041;-72
2023/07/29 00:31:30;;;;;;;3.67;1.75;;;;;;;22.91;59.11;100661.38;4981082;28;20290;-72
2023/07/29 00:33:57;;;;;;;5.72;1.60;;;;;;;22.93;59.04;100666.53;4980894;28;20440;-71
2023/07/29 00:36:23;;;;;;;3.67;1.65;;;;;;;22.93;59.08;100647.94;4981148;28;20035;-71
2023/07/29 00:38:49;;;;;;;4.15;1.98;;;;;;;22.93;59.16;100647.94;4980820;28;20039;-72
2023/07/29 00:41:15;;;;;;;5.50;2.00;;;;;;;22.91;59.13;100641.97;4980883;28;20034;-72
2023/07/29 00:43:40;;;;;;;4.38;1.85;;;;;;;22.91;58.79;100639.31;4981377;28;20365;-72
2023/07/29 00:46:08;;;;;;;4.63;1.80;;;;;;;22.90;59.06;100637.63;4981564;28;20077;-72
2023/07/29 00:48:34;;;;;;;3.22;1.73;;;;;;;22.91;58.82;100636.66;4980388;28;20030;-72
2023/07/29 00:50:59;;;;;;;4.03;1.70;;;;;;;22.90;58.71;100638.44;4981601;28;20041;-72
2023/07/29 00:53:25;;;;;;;4.38;1.70;;;;;;;22.90;58.90;100630.47;4981025;28;20157;-70
2023/07/29 00:55:50;;;;;;;3.95;1.77;;;;;;;22.90;59.21;100625.16;4980365;28;20034;-71
2023/07/29 00:58:15;;;;;;;3.30;1.60;;;;;;;22.89;58.97;100618.19;4981081;28;20034;-71
2023/07/29 01:00:41;;;;;;;4.70;1.75;;;;;;;22.89;58.84;100627.97;4980557;28;20100;-71
2023/07/29 01:03:08;;;;;;;3.67;1.98;;;;;;;22.89;59.02;100628.84;4980147;28;20038;-73
2023/07/29 01:06:00;;;;;;;3.80;1.90;;;;;;;22.88;58.93;100629.81;4980492;28;20240;-72
2023/07/29 01:08:59;;;;;;;3.25;1.70;;;;;;;22.87;58.90;100625.47;4962080;28;20038;-72
2023/07/29 01:11:41;;;;;;;4.13;2.00;;;;;;;22.87;58.69;100629.97;4980128;28;20142;-72
2023/07/29 01:14:36;;;;;;;3.90;2.10;;;;;;;22.88;58.95;100643.09;4980316;28;20044;-72
2023/07/29 01:17:07;;;;;;;3.90;1.80;;;;;;;22.89;58.78;100635.94;4980560;28;20599;-71
2023/07/29 01:19:47;;;;;;;4.57;2.00;;;;;;;22.88;58.51;100629.81;4980769;28;20039;-71
2023/07/29 01:22:13;;;;;;;4.18;2.30;;;;;;;22.86;59.02;100634.47;4980723;28;20046;-72
2023/07/29 01:24:39;;;;;;;3.50;1.70;;;;;;;22.88;58.76;100634.31;4979466;28;20038;-72
2023/07/29 01:27:05;;;;;;;4.20;2.10;;;;;;;22.88;58.93;100636.97;4980248;28;20034;-71
2023/07/29 01:29:31;;;;;;;3.58;1.70;;;;;;;22.87;58.67;100640.59;4980217;28;20448;-72
2023/07/29 01:32:03;;;;;;;4.35;2.03;;;;;;;22.86;58.80;100638.94;4980346;28;20491;-71
2023/07/29 01:34:35;;;;;;;4.57;1.88;;;;;;;22.87;58.83;100644.09;4980394;28;20042;-71
2023/07/29 01:37:02;;;;;;;4.82;2.00;;;;;;;22.87;58.36;100645.91;4978956;28;20105;-71
2023/07/29 01:39:31;;;;;;;4.03;2.05;;;;;;;22.86;58.84;100642.44;4980518;28;20238;-71
2023/07/29 01:41:56;;;;;;;3.13;1.70;;;;;;;22.86;58.81;100649.56;4980144;28;20125;-71
2023/07/29 01:44:22;;;;;;;3.35;1.80;;;;;;;22.87;58.76;100653.88;4979400;28;20188;-70
2023/07/29 01:46:48;;;;;;;3.80;1.70;;;;;;;22.85;58.88;100647.91;4979980;28;20034;-71
2023/07/29 01:49:14;;;;;;;4.72;1.77;;;;;;;22.87;58.65;100652.06;4980025;28;20034;-72
2023/07/29 01:51:39;;;;;;;3.63;1.60;;;;;;;22.86;58.83;100646.91;4979231;28;20033;-71
2023/07/29 01:54:04;;;;;;;3.03;1.70;;;;;;;22.85;58.69;100650.56;4980450;28;20395;-71
2023/07/29 01:56:30;;;;;;;5.10;2.10;;;;;;;22.86;58.83;100657.53;4979552;28;20026;-71
2023/07/29 01:58:56;;;;;;;3.40;1.75;;;;;;;22.86;58.66;100649.56;4979706;28;20030;-71
2023/07/29 02:01:21;;;;;;;4.93;1.65;;;;;;;22.85;58.48;100646.06;4980402;28;20030;-72
2023/07/29 02:03:46;;;;;;;3.92;1.67;;;;;;;22.86;58.28;100654.88;4980306;28;20126;-72
2023/07/29 02:06:12;;;;;;;4.57;1.98;;;;;;;22.85;58.52;100642.59;4979546;28;20045;-71
2023/07/29 02:08:40;;;;;;;2.95;1.45;;;;;;;22.84;58.23;100644.41;4980251;28;20876;-72
2023/07/29 02:11:05;;;;;;;4.03;1.60;;;;;;;22.84;58.39;100652.38;4978486;28;20034;-72
2023/07/29 02:13:31;;;;;;;4.10;1.67;;;;;;;22.82;58.27;100636.59;4979488;28;20462;-71
2023/07/29 02:15:56;;;;;;;3.40;1.60;;;;;;;22.84;58.21;100641.75;4979822;28;20061;-72
2023/07/29 02:18:21;;;;;;;5.05;1.70;;;;;;;22.83;58.29;100630.28;4980059;28;20256;-71
2023/07/29 02:20:49;;;;;;;2.75;1.33;;;;;;;22.85;58.31;100634.63;4979683;28;20423;-72
2023/07/29 02:23:16;;;;;;;3.28;1.50;;;;;;;22.82;58.20;100625.97;4979666;28;20064;-71
2023/07/29 02:25:41;;;;;;;3.22;1.58;;;;;;;22.83;58.02;100629.47;4979176;28;20034;-71
2023/07/29 02:28:06;;;;;;;3.42;1.50;;;;;;;22.81;58.04;100632.28;4980407;28;20036;-71
2023/07/29 02:30:32;;;;;;;2.80;1.55;;;;;;;22.80;58.00;100622.66;4979836;28;20040;-71
2023/07/29 02:32:57;;;;;;;4.20;1.50;;;;;;;22.82;57.98;100625.13;4979597;28;20757;-71
2023/07/29 02:35:22;;;;;;;3.97;1.67;;;;;;;22.81;57.91;100631.44;4979895;28;20264;-71
2023/07/29 02:37:48;;;;;;;3.40;1.50;;;;;;;22.80;57.98;100630.63;4979763;28;20037;-71
2023/07/29 02:40:13;;;;;;;4.03;1.52;;;;;;;22.81;58.20;100631.44;4979132;28;20026;-72
2023/07/29 02:42:38;;;;;;;4.13;1.45;;;;;;;22.79;57.86;100630.78;4980111;28;20026;-72
2023/07/29 02:45:04;;;;;;;4.93;1.75;;;;;;;22.80;58.06;100632.44;4978277;28;20069;-72
2023/07/29 02:47:29;;;;;;;3.42;1.63;;;;;;;22.78;58.31;100627.28;4979600;28;20102;-71
2023/07/29 02:49:55;;;;;;;2.80;1.50;;;;;;;22.77;57.81;100619.50;4982387;28;20030;-71
2023/07/29 02:52:20;;;;;;;2.63;1.40;;;;;;;22.78;57.94;100621.97;4983612;28;20038;-72
2023/07/29 02:54:45;;;;;;;3.33;1.50;;;;;;;22.78;57.76;100623.78;4982434;28;20042;-73
2023/07/29 02:57:11;;;;;;;4.07;1.65;;;;;;;22.78;58.00;100619.31;4983644;28;20066;-72
2023/07/29 02:59:36;;;;;;;3.20;1.48;;;;;;;22.77;57.75;100615.00;4983207;28;20038;-73
2023/07/29 03:02:02;;;;;;;4.78;1.55;;;;;;;22.77;58.12;100616.81;4982961;28;20038;-73
2023/07/29 03:04:27;;;;;;;5.60;1.67;;;;;;;22.77;57.60;100620.31;4983133;28;20045;-72
2023/07/29 03:06:52;;;;;;;3.05;1.50;;;;;;;22.77;57.84;100622.16;4983283;28;20069;-72
2023/07/29 03:09:18;;;;;;;2.97;1.70;;;;;;;22.76;57.36;100623.94;4982608;28;20045;-72
2023/07/29 03:11:43;;;;;;;3.50;1.60;;;;;;;22.77;57.46;100616.81;4982918;28;20522;-71
2023/07/29 03:14:08;;;;;;;3.08;1.50;;;;;;;22.76;57.46;100605.34;4981478;28;20496;-72
2023/07/29 03:16:34;;;;;;;2.75;1.35;;;;;;;22.76;57.54;100615.97;4982553;28;20088;-72
2023/07/29 03:19:00;;;;;;;3.72;1.60;;;;;;;22.75;57.89;100618.81;4982735;28;20042;-72
2023/07/29 03:21:25;;;;;;;2.13;1.23;;;;;;;22.76;57.62;100626.59;4982414;28;20547;-71
2023/07/29 03:23:50;;;;;;;2.60;1.33;;;;;;;22.75;57.77;100632.94;4981099;28;20125;-72
2023/07/29 03:26:16;;;;;;;4.03;1.67;;;;;;;22.74;57.67;100628.59;4983178;28;20046;-72
2023/07/29 03:28:43;;;;;;;2.97;1.48;;;;;;;22.75;57.38;100629.44;4982785;28;20038;-71
2023/07/29 03:31:09;;;;;;;3.47;1.60;;;;;;;22.75;57.28;100630.28;4982232;28;20141;-72
2023/07/29 03:33:34;;;;;;;3.25;1.55;;;;;;;22.76;57.91;100631.09;4964949;28;20033;-71
2023/07/29 03:35:59;;;;;;;2.78;1.40;;;;;;;22.76;57.86;100631.09;4981549;28;20120;-72
2023/07/29 03:38:25;;;;;;;2.58;1.40;;;;;;;22.74;57.82;100636.56;4982510;28;20079;-71
2023/07/29 03:40:50;;;;;;;4.47;1.50;;;;;;;22.74;57.57;100633.91;4981763;28;20026;-73
2023/07/29 03:43:15;;;;;;;3.25;1.48;;;;;;;22.74;57.48;100625.94;4982390;28;20045;-73
2023/07/29 03:45:41;;;;;;;3.20;1.50;;;;;;;22.74;57.45;100628.59;4982368;28;20048;-72
2023/07/29 03:48:06;;;;;;;3.72;1.40;;;;;;;22.73;57.41;100631.41;4981442;28;20046;-72
2023/07/29 03:50:33;;;;;;;3.38;1.23;;;;;;;22.74;57.24;100641.06;4981697;28;20185;-72
2023/07/29 03:52:59;;;;;;;3.40;1.45;;;;;;;22.73;57.50;100629.59;4981676;28;20096;-73
2023/07/29 03:55:24;;;;;;;3.33;1.58;;;;;;;22.71;57.45;100612.97;4982521;28;20038;-72
2023/07/29 03:57:49;;;;;;;3.08;1.60;;;;;;;22.73;57.41;100605.69;4981733;28;20376;-73
2023/07/29 04:00:14;;;;;;;4.00;1.55;;;;;;;22.73;57.38;100589.75;4981579;28;20620;-72
2023/07/29 04:02:41;;;;;;;5.90;1.75;;;;;;;22.73;57.09;100588.91;4981790;28;20113;-73
2023/07/29 04:05:08;;;;;;;3.15;1.48;;;;;;;22.72;57.37;100588.09;4982045;28;20076;-73
2023/07/29 04:07:34;;;;;;;3.00;1.65;;;;;;;22.71;56.97;100594.38;4981739;28;20129;-72
2023/07/29 04:10:00;;;;;;;3.28;1.55;;;;;;;22.71;57.40;100588.25;4981980;28;20030;-72
2023/07/29 04:12:26;;;;;;;3.42;1.55;;;;;;;22.70;57.06;100576.81;4981876;28;20047;-72
2023/07/29 04:14:51;;;;;;;3.00;1.25;;;;;;;22.71;57.54;100590.91;4981474;28;20034;-72
2023/07/29 04:17:16;;;;;;;2.85;1.50;;;;;;;22.71;57.21;100590.91;4981660;28;20057;-71
2023/07/29 04:19:42;;;;;;;3.65;1.60;;;;;;;22.71;57.14;100609.50;4963294;28;20037;-74
2023/07/29 04:22:07;;;;;;;2.97;1.65;;;;;;;22.71;57.14;100620.13;4982019;28;20045;-71
2023/07/29 04:24:32;;;;;;;3.25;1.30;;;;;;;22.72;57.17;100629.75;4981695;28;20129;-71
2023/07/29 04:26:57;;;;;;;3.13;1.38;;;;;;;22.71;57.11;100638.72;4981109;28;20030;-72
2023/07/29 04:29:23;;;;;;;3.42;1.60;;;;;;;22.71;56.96;100641.38;4981353;28;20111;-72
2023/07/29 04:31:52;;;;;;;7.07;1.58;;;;;;;22.69;57.12;100638.88;4981413;28;20027;-72
2023/07/29 04:34:18;;;;;;;3.00;1.50;;;;;;;22.69;56.93;100625.59;4981140;28;20034;-71
2023/07/29 04:36:44;;;;;;;3.88;1.40;;;;;;;22.68;57.25;100631.88;4980583;28;20026;-71
2023/07/29 04:39:09;;;;;;;2.83;1.30;;;;;;;22.70;56.93;100639.69;4981402;28;20055;-71
2023/07/29 04:41:35;;;;;;;5.17;1.60;;;;;;;22.69;57.23;100644.19;4981004;28;20475;-70
2023/07/29 04:44:00;;;;;;;3.13;1.55;;;;;;;22.69;57.04;100640.72;4981133;28;20280;-72
2023/07/29 04:46:25;;;;;;;3.50;1.50;;;;;;;22.69;57.22;100654.00;4979614;28;20109;-71
2023/07/29 04:48:51;;;;;;;2.55;1.40;;;;;;;22.68;57.22;100642.50;4981500;28;20038;-71
2023/07/29 04:51:16;;;;;;;2.67;1.40;;;;;;;22.69;56.89;100638.06;4981119;28;20034;-72
2023/07/29 04:53:41;;;;;;;4.50;1.40;;;;;;;22.69;57.29;100648.69;4980732;28;20492;-71
2023/07/29 04:56:06;;;;;;;2.60;1.27;;;;;;;22.67;56.84;100645.31;4981332;28;20030;-71
2023/07/29 04:58:34;;;;;;;3.67;1.40;;;;;;;22.67;57.07;100647.97;4981316;28;20768;-71
2023/07/29 05:01:00;;;;;;;2.83;1.40;;;;;;;22.68;56.67;100653.13;4980272;28;20057;-70
2023/07/29 05:03:25;;;;;;;3.00;1.30;;;;;;;22.68;57.06;100653.13;4980961;28;20066;-72
2023/07/29 05:05:53;;;;;;;3.75;1.50;;;;;;;22.67;56.99;100662.13;4980036;28;20030;-71
2023/07/29 05:08:18;;;;;;;2.67;1.35;;;;;;;22.66;57.08;100655.13;4978827;28;20514;-72
2023/07/29 05:10:44;;;;;;;2.60;1.25;;;;;;;22.66;56.59;100662.28;4980481;28;20095;-71
2023/07/29 05:13:09;;;;;;;2.42;1.30;;;;;;;22.66;56.77;100664.94;4980199;28;20047;-71
2023/07/29 05:15:34;;;;;;;3.05;1.20;;;;;;;22.67;56.95;100667.44;4980365;28;20038;-71
2023/07/29 05:17:59;;;;;;;3.00;1.35;;;;;;;22.66;57.03;100673.72;4981016;28;20038;-71
2023/07/29 05:20:25;;;;;;;3.57;1.57;;;;;;;22.66;56.69;100671.06;4980822;28;20483;-70
2023/07/29 05:22:50;;;;;;;2.10;1.10;;;;;;;22.67;56.90;100666.56;4978876;28;20270;-72
2023/07/29 05:25:15;;;;;;;2.90;1.40;;;;;;;22.66;56.57;100659.63;4981184;28;20053;-71
2023/07/29 05:27:41;;;;;;;3.80;1.25;;;;;;;22.66;56.82;100656.97;4980840;28;20279;-72
2023/07/29 05:30:07;;;;;;;3.00;1.40;;;;;;;22.64;56.67;100657.94;4980712;28;20442;-73
2023/07/29 05:32:33;;;;;;;3.25;1.40;;;;;;;22.64;56.93;100657.13;4979413;28;20057;-72
2023/07/29 05:34:58;;;;;;;3.95;1.38;;;;;;;22.63;56.92;100653.63;4979591;28;20030;-72
2023/07/29 05:37:23;;;;;;;2.28;1.20;;;;;;;22.64;56.64;100657.94;4980260;28;20046;-72
2023/07/29 05:39:48;;;;;;;2.97;1.30;;;;;;;22.65;56.49;100664.06;4979653;28;20031;-73
2023/07/29 05:42:14;;;;;;;2.72;1.23;;;;;;;22.65;56.91;100656.09;4980159;28;20085;-70
2023/07/29 05:44:39;;;;;;;2.75;1.40;;;;;;;22.63;56.79;100658.91;4979651;28;20080;-72
2023/07/29 05:47:05;;;;;;;3.97;1.30;;;;;;;22.66;56.61;100656.97;4980612;28;20038;-70
2023/07/29 05:49:30;;;;;;;2.88;1.17;;;;;;;22.65;56.69;100656.09;4979754;28;20263;-73
2023/07/29 05:51:56;;;;;;;3.17;1.30;;;;;;;22.70;56.70;100667.13;4978165;28;20237;-71
2023/07/29 05:54:21;;;;;;;3.08;1.23;;;;;;;22.70;56.80;100664.47;4962299;28;20042;-71
2023/07/29 05:56:46;;;;;;;3.07;1.40;;;;;;;22.72;56.57;100666.97;4979325;28;20041;-71
2023/07/29 05:59:11;;;;;;;2.70;1.40;;;;;;;22.70;56.75;100660.94;4980664;28;20669;-71
2023/07/29 06:01:37;;;;;;;2.78;1.30;;;;;;;22.72;56.85;100665.13;4979737;28;20484;-72
2023/07/29 06:04:02;;;;;;;3.08;1.23;;;;;;;22.72;56.90;100665.13;4979303;28;20056;-71
2023/07/29 06:06:28;;;;;;;4.47;1.20;;;;;;;22.71;57.06;100663.44;4980325;28;20026;-71
2023/07/29 06:08:53;;;;;;;2.42;1.25;;;;;;;22.72;56.66;100656.34;4979506;28;20385;-71
2023/07/29 06:11:18;;;;;;;2.45;1.30;;;;;;;22.71;56.75;100657.31;4979525;28;20109;-71
2023/07/29 06:13:44;;;;;;;2.30;1.20;;;;;;;22.70;57.14;100661.81;4979349;28;20515;-71
2023/07/29 06:16:09;;;;;;;2.55;1.15;;;;;;;22.71;56.72;100660.78;4980059;28;20034;-71
2023/07/29 06:18:34;;;;;;;3.22;1.25;;;;;;;22.73;56.75;100665.94;4979499;28;20036;-71
2023/07/29 06:21:00;;;;;;;2.65;1.33;;;;;;;22.71;56.98;100655.47;4979754;28;20053;-72
2023/07/29 06:23:25;;;;;;;2.50;1.10;;;;;;;22.70;56.98;100653.84;4980605;28;20089;-73
2023/07/29 06:25:50;;;;;;;3.17;1.13;;;;;;;22.71;57.01;100659.97;4983241;28;20092;-70
2023/07/29 06:28:15;;;;;;;2.35;1.10;;;;;;;22.70;57.03;100656.50;4984387;28;20038;-71
2023/07/29 06:30:41;;;;;;;2.88;1.40;;;;;;;22.69;56.70;100654.00;4983738;28;20042;-70
2023/07/29 06:33:06;;;;;;;3.05;1.20;;;;;;;22.67;56.87;100659.47;4982835;28;20111;-71
2023/07/29 06:35:31;;;;;;;3.30;1.50;;;;;;;22.68;56.89;100662.94;4982910;28;20070;-72
2023/07/29 06:37:57;;;;;;;3.00;1.30;;;;;;;22.67;57.22;100651.50;4964280;28;20872;-71
2023/07/29 06:40:22;;;;;;;3.55;1.40;;;;;;;22.66;57.31;100652.47;4982914;28;20030;-72
2023/07/29 06:42:47;;;;;;;4.43;1.17;;;;;;;22.65;57.39;100648.13;4982994;28;20483;-69
2023/07/29 06:45:13;;;;;;;4.30;1.35;;;;;;;22.63;57.33;100652.78;4983364;28;20034;-70
2023/07/29 06:47:38;;;;;;;2.47;1.27;;;;;;;22.61;57.29;100660.09;4982990;28;20507;-70
2023/07/29 06:50:04;;;;;;;3.53;1.40;;;;;;;22.61;57.62;100662.75;4983350;28;20510;-70
2023/07/29 06:52:29;;;;;;;3.10;1.20;;;;;;;22.64;57.65;100665.09;4983810;28;20026;-70
2023/07/29 06:54:55;;;;;;;3.23;1.43;;;;;;;22.66;57.96;100676.38;4982812;28;20754;-70
2023/07/29 06:57:20;;;;;;;3.80;1.40;;;;;;;22.63;57.65;100674.84;4983473;28;20267;-70
2023/07/29 06:59:45;;;;;;;3.08;1.35;;;;;;;22.66;58.15;100679.03;4983073;28;20788;-69
2023/07/29 07:02:11;;;;;;;4.47;1.48;;;;;;;22.65;57.96;100682.66;4982757;28;20038;-69
2023/07/29 07:04:39;;;;;;;4.38;1.35;;;;;;;22.66;57.57;100675.56;4964872;28;20318;-72
2023/07/29 07:07:04;;;;;;;2.67;1.20;;;;;;;22.67;57.92;100685.16;4982475;28;20550;-70
2023/07/29 07:09:30;;;;;;;2.90;1.15;;;;;;;22.66;58.13;100679.03;4965362;28;20039;-70
2023/07/29 07:11:55;;;;;;;2.73;1.37;;;;;;;22.67;57.85;100677.19;4964741;28;20555;-73
2023/07/29 07:14:20;;;;;;;4.28;1.23;;;;;;;22.64;58.26;100671.22;4980903;28;20280;-70
2023/07/29 07:16:46;;;;;;;2.65;1.20;;;;;;;22.67;57.78;100685.16;4982321;28;20481;-67
2023/07/29 07:19:11;;;;;;;2.70;1.33;;;;;;;22.68;58.13;100682.34;4982498;28;20037;-69
2023/07/29 07:21:36;;;;;;;3.70;1.23;;;;;;;22.68;57.84;100694.81;4866808;28;20606;-72
2023/07/29 07:24:02;;;;;;;4.93;1.55;;;;;;;22.67;58.37;100686.03;4957299;28;20280;-71
2023/07/29 07:26:27;;;;;;;2.85;1.30;;;;;;;22.68;58.17;100689.50;4982819;28;20045;-70
2023/07/29 07:28:53;;;;;;;2.88;1.40;;;;;;;22.69;58.48;100693.84;4964209;28;20038;-71
2023/07/29 07:31:18;;;;;;;3.13;1.38;;;;;;;22.69;58.15;100697.31;4982139;28;20121;-71
2023/07/29 07:33:44;;;;;;;2.95;1.30;;;;;;;22.67;58.47;100696.66;4981983;28;20043;-69
2023/07/29 07:36:09;;;;;;;2.38;1.20;;;;;;;22.69;58.67;100701.81;4980267;28;20116;-69
2023/07/29 07:38:35;;;;;;;2.63;1.27;;;;;;;22.69;58.69;100699.97;4981232;28;20479;-72
2023/07/29 07:41:00;;;;;;;7.50;1.67;;;;;;;22.74;58.69;100704.81;4978696;28;20380;-71
2023/07/29 07:43:25;;;;;;;6.18;1.52;;;;;;;22.78;58.38;100703.47;4981320;28;20091;-70
2023/07/29 07:45:56;;;;;;;6.35;1.33;;;;;;;22.81;58.20;100698.72;4981084;28;20061;-74
2023/07/29 07:48:22;;;;;;;4.40;1.45;;;;;;;22.85;58.29;100707.19;4982029;28;20197;-68
2023/07/29 07:50:47;;;;;;;3.33;1.48;;;;;;;22.80;58.50;100702.34;4981980;28;20031;-75
2023/07/29 07:53:12;;;;;;;7.90;1.50;;;;;;;22.75;58.45;100704.66;4983299;28;20045;-71
2023/07/29 07:55:38;;;;;;;5.68;1.40;;;;;;;22.76;59.07;100714.28;4982447;28;20268;-76
2023/07/29 07:58:03;;;;;;;3.67;1.20;;;;;;;22.77;59.07;100699.19;4982060;28;20073;-73
2023/07/29 08:00:28;;;;;;;4.70;1.13;;;;;;;22.77;58.86;100701.84;4981227;28;20109;-75
2023/07/29 08:02:53;;;;;;;3.63;1.30;;;;;;;22.75;58.77;100704.66;4981325;28;20038;-75
2023/07/29 08:05:19;;;;;;;5.10;1.40;;;;;;;22.75;58.79;100703.84;4981812;28;20272;-76
2023/07/29 08:07:44;;;;;;;4.88;1.50;;;;;;;22.73;59.02;100695.16;4980156;28;20092;-73
2023/07/29 08:10:09;;;;;;;4.63;1.30;;;;;;;22.72;59.19;100712.94;4981682;28;20034;-74
2023/07/29 08:12:35;;;;;;;3.03;1.30;;;;;;;22.71;59.05;100703.28;4963358;28;20291;-73
2023/07/29 08:15:00;;;;;;;2.67;1.23;;;;;;;22.70;59.08;100703.44;4981752;28;20034;-73
2023/07/29 08:17:25;;;;;;;2.63;1.15;;;;;;;22.70;58.81;100706.09;4980343;28;20038;-76
2023/07/29 08:19:51;;;;;;;2.72;1.25;;;;;;;22.70;58.47;100712.28;4981033;28;20076;-73
2023/07/29 08:22:17;;;;;;;3.38;1.23;;;;;;;22.69;58.52;100715.91;4980418;28;20054;-77
2023/07/29 08:24:42;;;;;;;4.05;1.20;;;;;;;22.70;58.61;100714.06;4962715;28;20041;-73
2023/07/29 08:27:08;;;;;;;3.55;1.27;;;;;;;22.68;58.74;100716.88;4981063;28;20545;-71
2023/07/29 08:29:33;;;;;;;4.55;1.60;;;;;;;22.75;58.38;100719.78;4980826;28;20046;-74
2023/07/29 08:31:58;;;;;;;3.25;1.25;;;;;;;22.73;58.45;100719.94;4980279;28;20514;-73
2023/07/29 08:34:24;;;;;;;3.40;1.17;;;;;;;22.74;58.28;100718.09;4980688;28;20443;-72
2023/07/29 08:36:49;;;;;;;8.98;1.98;;;;;;;22.75;58.52;100714.47;4980257;28;20657;-70
2023/07/29 08:39:14;;;;;;;4.57;1.40;;;;;;;22.71;58.33;100713.91;4962628;28;20038;-70
2023/07/29 08:41:46;;;;;;;5.88;1.67;;;;;;;22.71;58.19;100711.25;4980474;28;20030;-68
2023/07/29 08:44:21;;;;;;;3.30;1.40;;;;;;;22.71;58.21;100710.44;4982000;28;20062;-70
2023/07/29 08:46:46;;;;;;;4.47;1.63;;;;;;;22.68;58.62;100702.78;4980725;28;20034;-76
2023/07/29 08:49:13;;;;;;;7.68;1.27;;;;;;;22.70;58.33;100708.75;4980011;28;20042;-75
2023/07/29 08:51:42;;;;;;;2.97;1.20;;;;;;;22.70;58.31;100703.44;4981241;28;20945;-74
2023/07/29 08:54:10;;;;;;;3.85;1.30;;;;;;;22.73;58.24;100695.16;4980917;28;20030;-72
2023/07/29 08:56:36;;;;;;;2.63;1.13;;;;;;;22.78;58.29;100708.78;4980843;28;20040;-71
2023/07/29 08:59:02;;;;;;;5.25;1.60;;;;;;;22.77;58.19;100699.19;4980992;28;20420;-76
2023/07/29 09:01:28;;;;;;;3.90;1.30;;;;;;;22.79;58.23;100697.19;4979930;28;20226;-74
2023/07/29 09:03:53;;;;;;;4.47;1.30;;;;;;;22.81;58.03;100700.50;4980611;28;20038;-70
2023/07/29 09:06:21;;;;;;;4.35;1.30;;;;;;;22.81;58.36;100709.34;4980405;28;20038;-71
2023/07/29 09:08:49;;;;;;;7.40;1.40;;;;;;;22.83;58.45;100703.88;4980197;28;20538;-69
2023/07/29 09:11:17;;;;;;;3.92;1.23;;;;;;;22.84;58.32;100702.84;4966213;28;20108;-71
2023/07/29 09:13:42;;;;;;;3.47;1.20;;;;;;;22.87;58.28;100707.03;4965669;28;20534;-73
2023/07/29 09:16:09;;;;;;;4.80;1.60;;;;;;;22.87;58.27;100699.06;4980667;28;20038;-73
2023/07/29 09:18:34;;;;;;;3.03;1.30;;;;;;;22.88;58.14;100698.91;4979923;28;20066;-70
2023/07/29 09:21:00;;;;;;;2.55;1.10;;;;;;;22.89;57.94;100692.59;4961537;28;20205;-74
2023/07/29 09:23:27;;;;;;;3.80;1.20;;;;;;;22.89;58.04;100691.75;4979835;28;20496;-70
2023/07/29 09:26:01;;;;;;;4.45;1.42;;;;;;;22.87;58.26;100694.56;4979798;28;20229;-69
2023/07/29 09:28:27;;;;;;;;;;;;;;;22.95;57.93;100696.44;4980145;28;20045;-73
2023/07/29 09:30:53;;;;;;;3.85;1.30;;;;;;;22.97;58.15;100691.78;4976761;28;20731;-69
2023/07/29 09:33:18;;;;;;;3.70;1.23;;;;;;;22.95;57.50;100689.28;4979472;28;20053;-74
2023/07/29 09:35:44;;;;;;;3.13;1.30;;;;;;;22.95;57.56;100685.78;4979054;28;20038;-73
2023/07/29 09:38:14;;;;;;;7.38;1.50;;;;;;;22.90;58.14;100675.66;4979114;28;20438;-70
2023/07/29 09:40:41;;;;;;;2.70;1.20;;;;;;;22.87;57.85;100683.13;4979285;28;20026;-70
2023/07/29 09:43:09;;;;;;;3.67;1.27;;;;;;;22.96;57.65;100690.13;4961653;28;20484;-70
2023/07/29 09:45:35;;;;;;;3.45;1.35;;;;;;;23.08;57.45;100688.03;4977087;28;20486;-70
2023/07/29 09:48:02;;;;;;;2.85;1.13;;;;;;;23.05;57.42;100697.16;4960263;28;20042;-73
2023/07/29 09:50:29;;;;;;;2.22;1.00;;;;;;;22.95;57.83;100689.28;4978325;28;20034;-73
2023/07/29 09:52:58;;;;;;;3.25;1.20;;;;;;;22.93;57.48;100701.06;4979127;28;20031;-72
2023/07/29 09:55:25;;;;;;;3.22;1.20;;;;;;;22.92;57.50;100707.38;4962644;28;20039;-70
2023/07/29 09:58:14;;;;;;;2.92;1.10;;;;;;;22.90;57.83;100709.38;4977943;28;20502;-72
2023/07/29 10:00:40;;;;;;;2.80;1.10;;;;;;;22.91;57.67;100700.41;4976708;28;20048;-72
2023/07/29 10:03:09;;;;;;;3.72;1.25;;;;;;;22.88;58.06;100708.69;4979049;28;20031;-71
2023/07/29 10:05:35;;;;;;;2.08;1.02;;;;;;;22.89;57.91;100695.25;4979675;28;20030;-70
2023/07/29 10:08:01;;;;;;;4.15;1.20;;;;;;;22.88;57.96;100701.56;4979745;28;20065;-73
2023/07/29 10:10:28;;;;;;;3.05;1.42;;;;;;;22.87;58.21;100689.25;4979024;28;20216;-72
2023/07/29 10:12:54;;;;;;;3.40;1.20;;;;;;;22.88;57.99;100693.59;4960388;28;20058;-71
2023/07/29 10:15:20;;;;;;;3.08;1.10;;;;;;;22.87;57.94;100691.91;4983268;28;20116;-73
2023/07/29 10:17:46;;;;;;;2.85;1.17;;;;;;;22.91;58.04;100700.41;4977899;28;20360;-72
2023/07/29 10:20:12;;;;;;;3.72;1.48;;;;;;;22.97;57.51;100699.75;4979008;28;20031;-65
2023/07/29 10:22:43;;;;;;;6.82;1.33;;;;;;;22.98;57.85;100690.78;4978429;28;20047;-71
2023/07/29 10:25:18;;;;;;;4.05;1.20;;;;;;;23.00;57.87;100694.13;4962008;28;20058;-71
2023/07/29 10:28:01;;;;;;;4.85;1.30;;;;;;;23.06;57.80;100684.69;4961353;28;20537;-69
2023/07/29 10:30:28;;;;;;;2.75;1.30;;;;;;;23.14;57.43;100690.88;4962177;28;20403;-71
2023/07/29 10:32:58;;;;;;;4.65;1.40;;;;;;;23.14;57.62;100690.06;4979177;28;20039;-72
2023/07/29 10:35:25;;;;;;;2.63;1.15;;;;;;;23.15;57.66;100673.13;4946101;28;20038;-71
2023/07/29 10:37:52;;;;;;;4.38;1.13;;;;;;;23.14;57.55;100677.59;4978055;28;20040;-74
2023/07/29 10:40:17;;;;;;;2.30;1.15;;;;;;;23.13;57.62;100667.97;4979484;28;20053;-70
2023/07/29 10:43:09;;;;;;;2.13;1.20;;;;;;;23.12;57.58;100670.78;4979288;28;20427;-72
2023/07/29 10:45:39;;;;;;;2.45;1.52;;;;;;;23.11;57.98;100669.94;4961749;28;20051;-74
2023/07/29 10:48:11;;;;;;;4.35;1.60;;;;;;;23.12;57.63;100670.78;4979797;28;20062;-71
2023/07/29 10:50:37;;;;;;;5.30;1.52;;;;;;;23.12;57.49;100674.25;4979064;28;20053;-76
2023/07/29 10:53:03;;;;;;;3.75;1.45;;;;;;;23.10;57.74;100665.63;4979353;28;20050;-76
2023/07/29 10:55:34;;;;;;;5.38;1.17;;;;;;;23.13;57.39;100653.81;4979276;28;20046;-67
2023/07/29 10:58:13;;;;;;;4.45;1.20;;;;;;;23.12;57.77;100660.97;4951723;28;20038;-69
2023/07/29 11:00:41;;;;;;;5.27;1.47;;;;;;;23.13;57.94;100662.66;4088039;28;10000258;-71
2023/07/29 11:03:09;;;;;;;6.72;1.57;;;;;;;23.14;57.49;100668.78;4127546;28;10001576;-71
2023/07/29 11:05:51;;;;;;;5.00;1.50;;;;;;;23.12;57.80;100666.28;4976778;28;20047;-70
2023/07/29 11:08:19;;;;;;;3.83;1.15;;;;;;;23.12;57.54;100676.09;4095338;28;10000456;-70
2023/07/29 11:10:56;;;;;;;3.53;1.20;;;;;;;23.13;57.56;100675.94;4984998;28;20286;-75
2023/07/29 11:13:22;;;;;;;7.85;1.35;;;;;;;23.10;57.64;100670.94;4103341;28;10000246;-69
2023/07/29 11:15:50;;;;;;;4.05;1.20;;;;;;;23.10;58.23;100672.78;4970363;28;20488;-72
2023/07/29 11:18:16;;;;;;;5.47;1.23;;;;;;;23.07;58.24;100679.22;4980260;28;20050;-72
2023/07/29 11:20:41;;;;;;;6.43;1.40;;;;;;;23.08;57.96;100680.91;4981731;28;20033;-70
2023/07/29 11:23:06;;;;;;;3.35;1.30;;;;;;;23.06;58.22;100672.22;4969939;28;20053;-70